createdAt,value
2016-04-19T00:00:33.077Z,59.1
2016-04-19T00:01:33.111Z,58.91
2016-04-19T00:02:33.144Z,59.2
2016-04-19T00:03:33.163Z,59.2
2016-04-19T00:04:33.196Z,59.1
2016-04-19T00:05:33.246Z,59.39
2016-04-19T00:06:33.280Z,59.29
2016-04-19T00:07:33.313Z,59.39
2016-04-19T00:08:33.349Z,59.89
2016-04-19T00:09:33.382Z,60.15
2016-04-19T00:10:33.431Z,59.86
2016-04-19T00:11:33.449Z,60.24
2016-04-19T00:12:33.468Z,60.15
2016-04-19T00:13:33.502Z,60.63
2016-04-19T00:14:33.535Z,60.15
2016-04-19T00:15:33.585Z,60.34
2016-04-19T00:16:33.603Z,59.77
2016-04-19T00:17:33.638Z,59.86
2016-04-19T00:18:33.671Z,59.86
2016-04-19T00:19:33.705Z,60.24
2016-04-19T00:20:33.739Z,60.15
2016-04-19T00:21:33.784Z,60.15
2016-04-19T00:22:34.054Z,60.15
2016-04-19T00:23:33.837Z,60.53
2016-04-19T00:24:33.871Z,60.53
2016-04-19T00:25:33.905Z,60.34
2016-04-19T00:26:33.939Z,60.34
2016-04-19T00:27:33.974Z,60.82
2016-04-19T00:28:34.007Z,60.34
2016-04-19T00:29:35.603Z,60.24
2016-04-19T00:30:34.232Z,60.91
2016-04-19T00:31:34.828Z,60.82
2016-04-19T00:32:34.159Z,61
2016-04-19T00:33:34.177Z,60.44
2016-04-19T00:34:34.211Z,60.44
2016-04-19T00:35:34.245Z,60.72
2016-04-19T00:36:34.294Z,61
2016-04-19T00:37:34.328Z,61.96
2016-04-19T00:38:34.346Z,61.67
2016-04-19T00:39:34.396Z,61.77
2016-04-19T00:40:34.414Z,62.24
2016-04-19T00:41:34.448Z,63.1
2016-04-19T00:42:34.483Z,63.2
2016-04-19T00:43:34.517Z,62.91
2016-04-19T00:44:34.550Z,63.01
2016-04-19T00:45:34.600Z,63.57
2016-04-19T00:46:34.618Z,63.39
2016-04-19T00:47:34.652Z,63.76
2016-04-19T00:48:34.686Z,63.76
2016-04-19T00:49:34.736Z,64.34
2016-04-19T00:50:34.769Z,64.34
2016-04-19T00:51:34.788Z,65
2016-04-19T00:52:34.821Z,65.29
2016-04-19T00:53:34.855Z,65.67
2016-04-19T00:54:34.889Z,65.77
2016-04-19T00:55:34.923Z,65.77
2016-04-19T00:56:34.958Z,65.29
2016-04-19T00:57:34.991Z,65.67
2016-04-19T00:58:35.026Z,65.58
2016-04-19T00:59:35.059Z,66.53
2016-04-19T01:00:35.093Z,65.77
2016-04-19T01:01:35.127Z,65.77
2016-04-19T01:02:35.162Z,66.33
2016-04-19T01:03:35.210Z,66.33
2016-04-19T01:04:35.229Z,66.24
2016-04-19T01:05:35.263Z,66.33
2016-04-19T01:06:35.298Z,66.24
2016-04-19T01:07:35.331Z,66.33
2016-04-19T01:08:35.365Z,66.33
2016-04-19T01:09:35.398Z,66.43
2016-04-19T01:10:35.433Z,66.14
2016-04-19T01:11:35.467Z,66.05
2016-04-19T01:12:35.501Z,66.43
2016-04-19T01:13:35.534Z,66.43
2016-04-19T01:14:35.569Z,67.47
2016-04-19T01:15:35.603Z,67.38
2016-04-19T01:16:35.636Z,67.38
2016-04-19T01:17:35.670Z,67.76
2016-04-19T01:18:35.705Z,68.43
2016-04-19T01:19:35.738Z,68.62
2016-04-19T01:20:35.772Z,68.71
2016-04-19T01:21:35.822Z,68.24
2016-04-19T01:22:35.840Z,67.86
2016-04-19T01:23:35.874Z,68.15
2016-04-19T01:24:35.908Z,68.15
2016-04-19T01:25:35.941Z,68.62
2016-04-19T01:26:35.976Z,69.63
2016-04-19T01:27:36.010Z,69.63
2016-04-19T01:28:36.044Z,69.92
2016-04-19T01:29:36.077Z,70.3
2016-04-19T01:30:36.112Z,70.2
2016-04-19T01:31:36.145Z,70.1
2016-04-19T01:32:36.179Z,70.1
2016-04-19T01:33:36.213Z,70.49
2016-04-19T01:34:36.248Z,70.49
2016-04-19T01:35:36.281Z,70.2
2016-04-19T01:36:36.315Z,70.1
2016-04-19T01:37:36.333Z,70.2
2016-04-19T01:38:36.368Z,70.68
2016-04-19T01:39:36.401Z,70.1
2016-04-19T01:40:36.451Z,69.92
2016-04-19T01:41:36.484Z,70.58
2016-04-19T01:42:36.503Z,70.68
2016-04-19T01:43:36.537Z,70.01
2016-04-19T01:44:36.570Z,70.97
2016-04-19T01:45:36.605Z,71.06
2016-04-19T01:46:36.639Z,70.97
2016-04-19T01:47:36.673Z,71.53
2016-04-19T01:48:36.706Z,71.25
2016-04-19T01:49:36.756Z,71.34
2016-04-19T01:50:36.774Z,70.97
2016-04-19T01:51:36.809Z,71.53
2016-04-19T01:52:36.841Z,71.34
2016-04-19T01:53:36.876Z,71.15
2016-04-19T01:54:36.911Z,71.06
2016-04-19T01:55:36.944Z,70.77
2016-04-19T01:56:36.978Z,70.68
2016-04-19T01:57:37.012Z,71.34
2016-04-19T01:58:37.046Z,71.91
2016-04-19T01:59:37.079Z,72.49
2016-04-19T02:00:37.113Z,72.2
2016-04-19T02:01:37.148Z,72.3
2016-04-19T02:02:37.182Z,72.96
2016-04-19T02:03:37.215Z,73.25
2016-04-19T02:04:37.249Z,73.63
2016-04-19T02:05:37.284Z,73.63
2016-04-19T02:06:37.318Z,74.67
2016-04-19T02:07:37.336Z,74.29
2016-04-19T02:08:37.385Z,74.1
2016-04-19T02:09:37.404Z,74.1
2016-04-19T02:10:37.454Z,74.2
2016-04-19T02:11:37.487Z,74.58
2016-04-19T02:12:37.506Z,74.77
2016-04-19T02:13:37.555Z,74.1
2016-04-19T02:14:37.589Z,73.91
2016-04-19T02:15:37.622Z,74.01
2016-04-19T02:16:37.656Z,73.72
2016-04-19T02:17:37.691Z,74.39
2016-04-19T02:18:37.709Z,74.58
2016-04-19T02:19:37.743Z,74.58
2016-04-19T02:20:37.777Z,73.44
2016-04-19T02:21:37.811Z,73.91
2016-04-19T02:22:37.861Z,74.29
2016-04-19T02:23:37.879Z,73.82
2016-04-19T02:24:37.928Z,74.2
2016-04-19T02:25:37.947Z,73.63
2016-04-19T02:26:37.980Z,73.72
2016-04-19T02:27:38.015Z,73.53
2016-04-19T02:28:38.049Z,73.63
2016-04-19T02:29:38.083Z,73.53
